Time;durP1;ratioP1;P1;durP2;ratioP2;P2;SDS_P1;SDS_P2;PMS_P1;PMS_P2;Temp;Humidity;BMP_temperature;BMP_pressure;BME280_temperature;BME280_humidity;BME280_pressure;Samples;Min_cycle;Max_cycle;Signal;HPM_P1;HPM_P2
2023/03/24 00:02:09;;;;;;;12.02;2.92;;;12.00;99.90;;;;;;5092032;28;20040;-92
2023/03/24 00:04:35;;;;;;;9.63;3.00;;;12.00;99.90;;;;;;5073757;28;20047;-93
2023/03/24 00:07:02;;;;;;;7.70;2.55;;;12.00;99.90;;;;;;5091894;28;20044;-93
2023/03/24 00:09:29;;;;;;;8.05;2.78;;;12.00;99.90;;;;;;5091248;28;20040;-93
2023/03/24 00:11:56;;;;;;;11.10;2.88;;;12.00;99.90;;;;;;5091744;28;20040;-92
2023/03/24 00:14:23;;;;;;;8.63;3.05;;;12.00;99.90;;;;;;5074732;28;20404;-93
2023/03/24 00:16:51;;;;;;;8.07;2.75;;;12.00;99.90;;;;;;5074298;28;20048;-93
2023/03/24 00:19:18;;;;;;;9.57;2.83;;;12.00;99.90;;;;;;5090691;28;20047;-92
2023/03/24 00:21:44;;;;;;;10.85;3.63;;;12.00;99.90;;;;;;5073029;28;20119;-93
2023/03/24 00:24:11;;;;;;;10.13;2.95;;;12.00;99.90;;;;;;5097484;28;20040;-92
2023/03/24 00:26:38;;;;;;;8.82;2.70;;;11.90;99.90;;;;;;5096750;28;20044;-92
2023/03/24 00:29:07;;;;;;;10.38;2.83;;;11.90;99.90;;;;;;5065821;28;20082;-93
2023/03/24 00:31:33;;;;;;;8.30;2.60;;;11.90;99.90;;;;;;5099271;28;20404;-92
2023/03/24 00:34:01;;;;;;;10.57;2.97;;;11.90;99.90;;;;;;5062470;28;20118;-92
2023/03/24 00:36:27;;;;;;;9.70;2.65;;;11.90;99.90;;;;;;5065732;28;20028;-94
2023/03/24 00:38:54;;;;;;;9.00;3.00;;;11.90;99.90;;;;;;5063601;28;20035;-92
2023/03/24 00:41:23;;;;;;;12.13;4.75;;;11.90;99.90;;;;;;5098093;28;20039;-92
2023/03/24 00:43:49;;;;;;;8.63;2.88;;;11.90;99.90;;;;;;5065854;28;20032;-92
2023/03/24 00:46:26;;;;;;;9.10;2.95;;;11.90;99.90;;;;;;5100596;28;20051;-93
2023/03/24 00:49:01;;;;;;;10.43;2.85;;;11.90;99.90;;;;;;5068063;28;20040;-93
2023/03/24 00:51:31;;;;;;;12.70;3.05;;;11.90;99.90;;;;;;5065809;28;20141;-92
2023/03/24 00:53:58;;;;;;;11.25;3.08;;;11.80;99.90;;;;;;5098512;28;20028;-92
2023/03/24 00:56:29;;;;;;;9.77;3.05;;;11.80;99.90;;;;;;5081769;28;20039;-94
2023/03/24 00:58:56;;;;;;;9.07;2.37;;;11.80;99.90;;;;;;5069374;28;20035;-94
2023/03/24 01:01:28;;;;;;;9.05;2.58;;;11.80;99.90;;;;;;5112823;27;20413;-92
2023/03/24 01:03:55;;;;;;;7.85;2.75;;;11.80;99.90;;;;;;5096467;28;20036;-93
2023/03/24 01:06:22;;;;;;;8.43;2.70;;;11.80;99.90;;;;;;5067723;28;20048;-93
2023/03/24 01:08:52;;;;;;;8.60;2.97;;;11.80;99.90;;;;;;5080732;28;20433;-93
2023/03/24 01:11:23;;;;;;;9.57;2.65;;;11.80;99.90;;;;;;5099809;28;20058;-94
2023/03/24 01:13:49;;;;;;;9.65;3.45;;;11.80;99.90;;;;;;5063791;28;20059;-94
2023/03/24 01:16:15;;;;;;;8.82;3.00;;;11.90;99.90;;;;;;5097662;28;20040;-93
2023/03/24 01:18:41;;;;;;;11.98;3.15;;;11.90;99.90;;;;;;5079663;28;20055;-94
2023/03/24 01:21:09;;;;;;;7.65;3.22;;;11.90;99.90;;;;;;5096655;28;20115;-94
2023/03/24 01:23:36;;;;;;;8.50;2.63;;;11.90;99.90;;;;;;5090483;28;20036;-94
2023/03/24 01:26:07;;;;;;;9.73;3.60;;;11.90;99.90;;;;;;5074398;28;20075;-93
2023/03/24 01:28:39;;;;;;;8.35;3.35;;;11.90;99.90;;;;;;5073131;28;20515;-92
2023/03/24 01:31:06;;;;;;;9.27;2.75;;;11.90;99.90;;;;;;5089160;28;20044;-93
2023/03/24 01:33:32;;;;;;;8.15;2.83;;;12.00;99.90;;;;;;5090422;28;20089;-93
2023/03/24 01:35:57;;;;;;;8.45;3.45;;;11.90;99.90;;;;;;5072253;28;20032;-93
2023/03/24 01:38:23;;;;;;;10.45;4.93;;;12.00;99.90;;;;;;5073375;28;20397;-93
2023/03/24 01:40:49;;;;;;;8.73;3.42;;;12.00;99.90;;;;;;5089669;28;20032;-93
2023/03/24 01:43:34;;;;;;;10.23;2.70;;;12.00;99.90;;;;;;5072908;28;20048;-92
2023/03/24 01:46:04;;;;;;;9.20;2.70;;;12.00;99.90;;;;;;5089925;28;20122;-93
2023/03/24 01:48:41;;;;;;;9.63;3.13;;;12.00;99.90;;;;;;5090559;28;20051;-93
2023/03/24 01:51:18;;;;;;;6.25;3.05;;;12.00;99.90;;;;;;5073272;28;20085;-93
2023/03/24 01:53:58;;;;;;;8.88;3.20;;;12.00;99.90;;;;;;5089118;28;20065;-92
2023/03/24 01:56:26;;;;;;;7.47;2.67;;;12.00;99.90;;;;;;5091285;28;20032;-93
2023/03/24 01:59:00;;;;;;;8.85;3.10;;;12.00;99.90;;;;;;5089386;28;20029;-93
2023/03/24 02:01:28;;;;;;;9.55;3.38;;;12.00;99.90;;;;;;5073352;28;20085;-93
2023/03/24 02:03:56;;;;;;;9.30;2.97;;;12.00;99.90;;;;;;5073389;28;20032;-93
2023/03/24 02:06:25;;;;;;;9.23;3.85;;;12.00;99.90;;;;;;5071862;28;20549;-94
2023/03/24 02:08:57;;;;;;;9.75;3.38;;;12.00;99.90;;;;;;5090587;28;20511;-95
2023/03/24 02:11:26;;;;;;;7.65;2.95;;;12.00;99.90;;;;;;5072648;28;20047;-94
2023/03/24 02:13:52;;;;;;;7.88;3.05;;;12.10;99.90;;;;;;5073554;28;20058;-94
2023/03/24 02:16:30;;;;;;;8.82;3.95;;;12.10;99.90;;;;;;5074236;28;20127;-92
2023/03/24 02:19:11;;;;;;;7.40;3.20;;;12.10;99.90;;;;;;5094031;28;20036;-93
2023/03/24 02:21:50;;;;;;;7.13;2.65;;;12.10;99.90;;;;;;5077346;28;20036;-92
2023/03/24 02:24:49;;;;;;;6.65;2.70;;;12.10;99.90;;;;;;5076906;28;20066;-93
2023/03/24 02:27:46;;;;;;;10.13;3.25;;;12.10;99.90;;;;;;5077927;28;20074;-92
2023/03/24 02:30:49;;;;;;;6.75;2.75;;;12.10;99.90;;;;;;5077188;28;20067;-94
2023/03/24 02:33:41;;;;;;;9.00;3.00;;;12.10;99.90;;;;;;5077548;28;20097;-93
2023/03/24 02:36:29;;;;;;;6.93;2.33;;;12.20;99.90;;;;;;5077595;28;20130;-95
2023/03/24 02:39:16;;;;;;;6.85;2.55;;;12.20;99.90;;;;;;5094041;28;20409;-94
2023/03/24 02:42:00;;;;;;;7.97;2.83;;;12.20;99.90;;;;;;5077034;28;20040;-94
2023/03/24 02:44:33;;;;;;;6.60;2.78;;;12.20;99.90;;;;;;5077642;28;20405;-95
2023/03/24 02:47:29;;;;;;;7.40;2.63;;;12.20;99.90;;;;;;5094632;28;20425;-95
2023/03/24 02:50:27;;;;;;;6.90;2.45;;;12.20;99.90;;;;;;5077402;28;20117;-94
2023/03/24 02:53:18;;;;;;;5.93;2.67;;;12.20;99.90;;;;;;5077663;28;20055;-94
2023/03/24 02:56:15;;;;;;;6.95;2.60;;;12.20;99.90;;;;;;5077341;28;20044;-95
2023/03/24 02:58:50;;;;;;;5.93;2.53;;;12.30;99.90;;;;;;5094444;28;20404;-94
2023/03/24 03:01:40;;;;;;;6.65;2.75;;;12.20;99.90;;;;;;5077389;28;20057;-96
2023/03/24 03:04:14;;;;;;;7.13;3.00;;;12.20;99.90;;;;;;5077357;28;20119;-95
2023/03/24 03:06:45;;;;;;;6.97;2.35;;;12.20;99.90;;;;;;5076776;28;20055;-95
2023/03/24 03:09:14;;;;;;;10.10;3.05;;;12.20;99.90;;;;;;5094270;28;20497;-95
2023/03/24 03:11:42;;;;;;;8.50;2.92;;;12.30;99.90;;;;;;5076761;28;20048;-94
2023/03/24 03:14:19;;;;;;;7.65;2.80;;;12.30;99.90;;;;;;5094385;28;20059;-95
2023/03/24 03:16:53;;;;;;;6.63;2.53;;;12.30;99.90;;;;;;5076849;28;20040;-95
2023/03/24 03:19:22;;;;;;;7.15;3.10;;;12.30;99.90;;;;;;5076849;28;20063;-95
2023/03/24 03:21:49;;;;;;;7.32;2.65;;;12.30;99.90;;;;;;5077673;28;20086;-95
2023/03/24 03:24:26;;;;;;;8.55;2.95;;;12.30;99.90;;;;;;5076789;28;20040;-94
2023/03/24 03:27:15;;;;;;;6.90;2.65;;;12.30;99.90;;;;;;5076991;28;20051;-95
2023/03/24 03:29:47;;;;;;;8.32;3.13;;;12.30;99.90;;;;;;5075553;28;20044;-91
2023/03/24 03:32:20;;;;;;;6.35;2.22;;;12.30;99.90;;;;;;5076455;28;20050;-95
2023/03/24 03:34:51;;;;;;;7.68;3.15;;;12.30;99.90;;;;;;5093443;28;20071;-96
2023/03/24 03:37:31;;;;;;;7.45;2.65;;;12.30;99.90;;;;;;5092612;28;20028;-94
2023/03/24 03:40:22;;;;;;;7.00;2.63;;;12.30;99.90;;;;;;5092872;28;20051;-95
2023/03/24 03:42:48;;;;;;;6.43;2.42;;;12.40;99.90;;;;;;5077307;28;20048;-95
2023/03/24 03:45:13;;;;;;;6.65;2.58;;;12.40;99.90;;;;;;5092658;28;20046;-95
2023/03/24 03:47:39;;;;;;;6.82;2.63;;;12.40;99.90;;;;;;5075661;28;20546;-95
2023/03/24 03:50:07;;;;;;;6.03;2.40;;;12.40;99.90;;;;;;5076626;28;20048;-94
2023/03/24 03:52:35;;;;;;;6.47;2.45;;;12.40;99.90;;;;;;5076338;28;20079;-94
2023/03/24 03:55:03;;;;;;;6.35;2.22;;;12.40;99.90;;;;;;5075990;28;20046;-95
2023/03/24 03:57:29;;;;;;;6.20;2.28;;;12.50;99.90;;;;;;5076912;28;20035;-95
2023/03/24 03:59:55;;;;;;;6.93;2.85;;;12.50;99.90;;;;;;5076660;28;20089;-96
2023/03/24 04:02:31;;;;;;;4.07;1.60;;;12.50;99.90;;;;;;5076508;28;20402;-95
2023/03/24 04:05:09;;;;;;;4.30;1.60;;;12.50;99.90;;;;;;5092637;28;20096;-96
2023/03/24 04:08:07;;;;;;;5.68;1.75;;;12.50;99.90;;;;;;5092727;28;20036;-95
2023/03/24 04:10:58;;;;;;;6.10;1.85;;;12.40;99.90;;;;;;5091985;28;20043;-95
2023/03/24 04:13:31;;;;;;;4.82;1.45;;;12.40;99.90;;;;;;5075945;28;20040;-95
2023/03/24 04:16:10;;;;;;;3.90;1.15;;;12.30;99.90;;;;;;5075358;28;20044;-94
2023/03/24 04:18:43;;;;;;;5.05;1.50;;;12.10;99.90;;;;;;5074878;28;20502;-94
2023/03/24 04:21:27;;;;;;;4.18;1.27;;;12.00;99.90;;;;;;5075605;28;20032;-94
2023/03/24 04:24:33;;;;;;;8.75;1.55;;;11.90;99.90;;;;;;5074920;28;20051;-94
2023/03/24 04:27:20;;;;;;;2.30;1.00;;;11.80;99.90;;;;;;5075789;28;20048;-94
2023/03/24 04:30:14;;;;;;;5.43;1.23;;;11.60;99.90;;;;;;5075525;28;20036;-94
2023/03/24 04:32:53;;;;;;;8.68;1.63;;;11.50;99.90;;;;;;5092124;28;20044;-93
2023/03/24 04:35:31;;;;;;;5.10;1.35;;;11.40;99.90;;;;;;5075357;28;20040;-92
2023/03/24 04:38:04;;;;;;;4.32;1.10;;;11.30;99.90;;;;;;5073973;28;20036;-93
2023/03/24 04:40:33;;;;;;;9.32;1.52;;;11.30;99.90;;;;;;5074351;28;20040;-94
2023/03/24 04:43:06;;;;;;;6.95;1.50;;;11.20;99.90;;;;;;5075197;28;20119;-94
2023/03/24 04:45:34;;;;;;;4.18;1.30;;;11.20;99.90;;;;;;5074844;28;20416;-94
2023/03/24 04:48:03;;;;;;;6.53;1.20;;;11.10;99.90;;;;;;5091162;28;20047;-94
2023/03/24 04:50:35;;;;;;;7.53;1.55;;;11.10;99.90;;;;;;5075095;28;20055;-95
2023/03/24 04:53:02;;;;;;;5.43;1.40;;;11.00;99.90;;;;;;5091656;28;20035;-94
2023/03/24 04:55:54;;;;;;;7.07;1.48;;;11.00;99.90;;;;;;5075021;28;20302;-94
2023/03/24 04:58:21;;;;;;;3.63;1.10;;;11.00;99.90;;;;;;4993714;28;20046;-94
2023/03/24 05:00:47;;;;;;;10.23;1.85;;;11.00;99.90;;;;;;4978135;28;20057;-95
2023/03/24 05:03:15;;;;;;;6.60;1.65;;;11.00;99.90;;;;;;4994619;28;20056;-95
2023/03/24 05:05:44;;;;;;;4.47;1.30;;;10.90;99.90;;;;;;4978044;28;20048;-94
2023/03/24 05:08:10;;;;;;;8.38;1.95;;;10.90;99.90;;;;;;4994203;28;20077;-94
2023/03/24 05:10:36;;;;;;;6.68;1.48;;;10.90;99.90;;;;;;4994748;28;20720;-95
2023/03/24 05:13:04;;;;;;;3.17;1.10;;;10.80;99.90;;;;;;4980850;28;20483;-95
2023/03/24 05:15:29;;;;;;;6.18;1.50;;;10.80;99.90;;;;;;5013913;28;20057;-94
2023/03/24 05:17:56;;;;;;;5.95;1.73;;;10.80;99.90;;;;;;5004322;28;20038;-94
2023/03/24 05:20:22;;;;;;;6.45;1.63;;;10.90;99.90;;;;;;4991213;28;20454;-93
2023/03/24 05:22:49;;;;;;;7.15;1.48;;;10.80;99.90;;;;;;4977810;28;20046;-94
2023/03/24 05:25:15;;;;;;;8.00;1.55;;;10.80;99.90;;;;;;4993449;28;20042;-94
2023/03/24 05:27:42;;;;;;;8.10;1.85;;;10.80;99.90;;;;;;4993523;28;20045;-93
2023/03/24 05:30:08;;;;;;;6.38;1.70;;;10.80;99.90;;;;;;4977334;28;20407;-94
2023/03/24 05:32:34;;;;;;;10.65;1.90;;;10.70;99.90;;;;;;4978369;28;20042;-93
2023/03/24 05:35:00;;;;;;;7.60;1.95;;;10.70;99.90;;;;;;5028754;28;20109;-93
2023/03/24 05:37:26;;;;;;;14.25;2.20;;;10.70;99.90;;;;;;5074547;28;20436;-94
2023/03/24 05:39:52;;;;;;;5.93;1.40;;;10.70;99.90;;;;;;5091499;28;20044;-93
2023/03/24 05:42:18;;;;;;;5.72;1.27;;;10.70;99.90;;;;;;5074729;28;20154;-93
2023/03/24 05:44:44;;;;;;;7.57;2.30;;;10.60;99.90;;;;;;5074001;28;20036;-94
2023/03/24 05:47:12;;;;;;;9.10;1.70;;;10.50;99.90;;;;;;5073540;28;20543;-95
2023/03/24 05:49:38;;;;;;;6.60;2.30;;;10.50;99.90;;;;;;5073747;28;20043;-93
2023/03/24 05:52:04;;;;;;;10.30;2.22;;;10.40;99.90;;;;;;5088852;28;20489;-92
2023/03/24 05:54:32;;;;;;;7.50;1.90;;;10.40;99.90;;;;;;5073505;28;20036;-93
2023/03/24 05:56:58;;;;;;;10.57;1.88;;;10.30;99.90;;;;;;5074044;28;20085;-95
2023/03/24 05:59:25;;;;;;;9.00;1.80;;;10.30;99.90;;;;;;5090123;28;20036;-94
2023/03/24 06:01:58;;;;;;;8.25;2.08;;;10.30;99.90;;;;;;5074111;28;20042;-93
2023/03/24 06:04:24;;;;;;;5.22;1.30;;;10.30;99.90;;;;;;5090483;28;20093;-93
2023/03/24 06:06:49;;;;;;;10.07;1.73;;;10.20;99.90;;;;;;5074102;28;20423;-92
2023/03/24 06:09:15;;;;;;;10.02;2.08;;;10.30;99.90;;;;;;5073403;28;20413;-91
2023/03/24 06:11:42;;;;;;;8.38;2.50;;;10.20;99.90;;;;;;5073418;28;20075;-91
2023/03/24 06:14:09;;;;;;;11.55;1.83;;;10.20;99.90;;;;;;5089915;28;20502;-92
2023/03/24 06:16:38;;;;;;;8.13;1.70;;;10.20;99.90;;;;;;5090165;28;20054;-92
2023/03/24 06:19:05;;;;;;;7.05;1.45;;;10.20;99.90;;;;;;5089661;28;20080;-93
2023/03/24 06:21:32;;;;;;;6.90;1.13;;;10.20;99.90;;;;;;5089347;28;20040;-92
2023/03/24 06:23:58;;;;;;;8.43;1.75;;;10.20;99.90;;;;;;5073344;28;20044;-93
2023/03/24 06:26:24;;;;;;;7.57;1.25;;;10.20;99.90;;;;;;5090419;28;20387;-92
2023/03/24 06:28:50;;;;;;;8.50;1.65;;;10.20;99.90;;;;;;5089274;28;20035;-92
2023/03/24 06:31:19;;;;;;;5.65;1.55;;;10.20;99.90;;;;;;5090416;28;20543;-93
2023/03/24 06:33:45;;;;;;;5.43;1.63;;;10.30;99.90;;;;;;5073634;28;20043;-93
2023/03/24 06:36:12;;;;;;;14.02;2.67;;;10.30;99.90;;;;;;5072132;28;20161;-94
2023/03/24 06:38:39;;;;;;;7.93;1.73;;;10.40;99.90;;;;;;5073243;28;20181;-93
2023/03/24 06:41:05;;;;;;;8.02;1.67;;;10.40;99.90;;;;;;5072774;28;20401;-93
2023/03/24 06:43:31;;;;;;;8.80;1.80;;;10.40;99.90;;;;;;5073303;28;20388;-92
2023/03/24 06:45:57;;;;;;;8.05;1.83;;;10.40;99.90;;;;;;5090342;28;20500;-92
2023/03/24 06:48:23;;;;;;;5.20;1.08;;;10.40;99.90;;;;;;5072668;28;20040;-93
2023/03/24 06:50:50;;;;;;;8.80;1.75;;;10.40;99.90;;;;;;5090591;28;20040;-93
2023/03/24 06:53:16;;;;;;;8.43;1.33;;;10.50;99.90;;;;;;5073691;28;20165;-92
2023/03/24 06:55:41;;;;;;;6.75;1.20;;;10.50;99.90;;;;;;5090123;28;20537;-93
2023/03/24 06:58:07;;;;;;;9.25;1.75;;;10.50;99.90;;;;;;5073455;28;20045;-92
2023/03/24 07:00:33;;;;;;;8.45;2.08;;;10.60;99.90;;;;;;5090156;28;20036;-92
2023/03/24 07:03:01;;;;;;;10.13;1.92;;;10.60;99.90;;;;;;5075207;28;20071;-93
2023/03/24 07:05:27;;;;;;;8.95;2.20;;;10.70;99.90;;;;;;5076325;28;20114;-94
2023/03/24 07:07:53;;;;;;;11.18;1.85;;;10.70;99.90;;;;;;5076291;28;20063;-93
2023/03/24 07:10:20;;;;;;;9.57;1.85;;;10.70;99.90;;;;;;5093569;28;20154;-92
2023/03/24 07:12:47;;;;;;;9.82;1.85;;;10.80;99.90;;;;;;5075667;28;20036;-94
2023/03/24 07:15:13;;;;;;;11.82;2.05;;;10.80;99.90;;;;;;5076595;28;20123;-93
2023/03/24 07:17:40;;;;;;;13.55;1.92;;;10.80;99.90;;;;;;5076303;28;20039;-94
2023/03/24 07:20:07;;;;;;;10.50;2.45;;;10.70;99.90;;;;;;5076453;28;20039;-93
2023/03/24 07:22:34;;;;;;;7.28;1.42;;;10.70;99.90;;;;;;5093077;28;20050;-95
2023/03/24 07:25:03;;;;;;;7.07;1.40;;;10.70;99.90;;;;;;5092792;28;20075;-93
2023/03/24 07:27:32;;;;;;;10.43;1.80;;;10.70;99.90;;;;;;5075972;28;20119;-92
2023/03/24 07:29:58;;;;;;;11.27;1.70;;;10.70;99.90;;;;;;5075919;28;20527;-93
2023/03/24 07:32:24;;;;;;;10.15;2.33;;;10.70;99.90;;;;;;5076281;28;20040;-93
2023/03/24 07:34:50;;;;;;;12.32;2.80;;;10.70;99.90;;;;;;5076191;28;20039;-94
2023/03/24 07:37:16;;;;;;;11.40;2.03;;;10.80;99.90;;;;;;5076255;28;20522;-94
2023/03/24 07:39:41;;;;;;;9.95;2.53;;;10.80;99.90;;;;;;5093343;28;20040;-94
2023/03/24 07:42:07;;;;;;;15.23;2.40;;;10.80;99.90;;;;;;5075598;28;20432;-94
2023/03/24 07:44:32;;;;;;;14.38;2.80;;;10.90;99.90;;;;;;5076621;28;20040;-93
2023/03/24 07:46:58;;;;;;;14.63;3.17;;;10.90;99.90;;;;;;5075808;28;20043;-92
2023/03/24 07:49:24;;;;;;;9.95;2.40;;;10.90;99.90;;;;;;5075075;28;20093;-93
2023/03/24 07:51:50;;;;;;;11.68;2.08;;;10.90;99.90;;;;;;5076096;28;20500;-93
2023/03/24 07:54:16;;;;;;;15.98;2.25;;;11.00;99.90;;;;;;5075643;28;20071;-93
2023/03/24 07:56:41;;;;;;;11.13;2.78;;;11.00;99.90;;;;;;5076168;28;20036;-93
2023/03/24 07:59:08;;;;;;;12.52;2.25;;;11.00;99.90;;;;;;5075314;28;20058;-93
2023/03/24 08:01:35;;;;;;;12.27;2.03;;;11.00;99.90;;;;;;5076101;28;20046;-94
2023/03/24 08:04:02;;;;;;;11.95;2.50;;;11.00;99.90;;;;;;5073243;28;20035;-92
2023/03/24 08:06:28;;;;;;;9.38;2.00;;;11.00;99.90;;;;;;5079639;28;20036;-93
2023/03/24 08:08:55;;;;;;;12.90;2.30;;;11.10;99.90;;;;;;5055433;28;20044;-94
2023/03/24 08:11:21;;;;;;;12.73;2.35;;;11.10;99.90;;;;;;5089325;28;20047;-95
2023/03/24 08:13:46;;;;;;;11.80;2.22;;;11.20;99.90;;;;;;5091517;28;20032;-94
2023/03/24 08:16:12;;;;;;;11.05;2.53;;;11.20;99.90;;;;;;5109815;28;20505;-94
2023/03/24 08:18:38;;;;;;;12.82;3.20;;;11.30;99.90;;;;;;5092210;28;20776;-93
2023/03/24 08:21:04;;;;;;;15.13;3.08;;;11.30;99.90;;;;;;5075482;28;20036;-93
2023/03/24 08:23:30;;;;;;;13.15;3.17;;;11.40;99.90;;;;;;5068651;28;20043;-93
2023/03/24 08:25:56;;;;;;;14.60;2.83;;;11.40;99.90;;;;;;5100865;28;20170;-93
2023/03/24 08:28:22;;;;;;;15.20;2.75;;;11.40;99.90;;;;;;5096674;28;20123;-93
2023/03/24 08:30:48;;;;;;;14.38;3.15;;;11.40;99.90;;;;;;5065437;28;20147;-93
2023/03/24 08:33:15;;;;;;;19.95;2.58;;;11.40;99.90;;;;;;5067097;28;20127;-94
2023/03/24 08:35:41;;;;;;;15.80;3.03;;;11.50;99.90;;;;;;5096369;28;20053;-95
2023/03/24 08:38:08;;;;;;;12.55;2.70;;;11.50;99.90;;;;;;5065007;28;20117;-93
2023/03/24 08:40:36;;;;;;;16.27;3.20;;;11.50;99.90;;;;;;5098934;28;20035;-93
2023/03/24 08:43:07;;;;;;;12.57;2.90;;;11.50;99.90;;;;;;5085633;28;20036;-94
2023/03/24 08:45:33;;;;;;;11.98;2.33;;;11.50;99.90;;;;;;5065926;28;20036;-94
2023/03/24 08:48:01;;;;;;;19.20;3.63;;;11.50;99.90;;;;;;5080481;28;20090;-94
2023/03/24 08:50:31;;;;;;;14.80;3.20;;;11.50;99.90;;;;;;5097992;28;20036;-94
2023/03/24 08:52:57;;;;;;;15.20;2.97;;;11.50;99.90;;;;;;5082025;28;20028;-92
2023/03/24 08:55:24;;;;;;;19.13;3.30;;;11.50;99.90;;;;;;5067023;28;20504;-93
2023/03/24 08:57:51;;;;;;;10.38;2.17;;;11.60;99.90;;;;;;5064443;28;20032;-93
2023/03/24 09:00:19;;;;;;;11.52;1.83;;;11.50;99.90;;;;;;5080983;28;20548;-92
2023/03/24 09:02:50;;;;;;;8.45;1.83;;;11.50;99.90;;;;;;5058461;28;20028;-92
2023/03/24 09:05:19;;;;;;;10.13;1.67;;;11.70;99.90;;;;;;5054731;28;20036;-90
2023/03/24 09:07:46;;;;;;;13.82;2.25;;;11.70;99.90;;;;;;5089846;28;20036;-91
2023/03/24 09:10:13;;;;;;;9.88;1.95;;;11.70;99.90;;;;;;5072670;28;20123;-91
2023/03/24 09:12:40;;;;;;;12.02;2.28;;;11.80;99.90;;;;;;5089547;28;20077;-92
2023/03/24 09:15:07;;;;;;;8.20;1.77;;;11.90;99.90;;;;;;5088842;28;20044;-92
2023/03/24 09:17:33;;;;;;;10.10;1.73;;;12.00;99.90;;;;;;5071140;28;20481;-92
2023/03/24 09:19:59;;;;;;;11.88;2.08;;;12.10;99.90;;;;;;5073915;28;20032;-93
2023/03/24 09:22:25;;;;;;;10.05;1.88;;;12.30;99.90;;;;;;5090586;28;20100;-92
2023/03/24 09:24:51;;;;;;;14.13;2.53;;;12.40;99.90;;;;;;5073550;28;20040;-92
2023/03/24 09:27:17;;;;;;;10.50;1.90;;;12.50;99.90;;;;;;5073853;28;20558;-93
2023/03/24 09:29:43;;;;;;;11.50;1.70;;;12.60;99.90;;;;;;5072983;28;20044;-92
2023/03/24 09:32:09;;;;;;;11.32;2.13;;;12.50;99.90;;;;;;5074104;28;20039;-92
2023/03/24 09:34:37;;;;;;;5.10;1.55;;;12.60;99.90;;;;;;5072894;28;20048;-92
2023/03/24 09:37:03;;;;;;;13.68;2.72;;;12.60;94.60;;;;;;5074147;28;20040;-92
2023/03/24 09:39:29;;;;;;;11.20;1.77;;;12.50;94.40;;;;;;5090426;28;20089;-91
2023/03/24 09:41:54;;;;;;;13.00;2.05;;;12.40;93.80;;;;;;5073111;28;20036;-92
2023/03/24 09:44:45;;;;;;;11.02;1.60;;;12.50;97.10;;;;;;5073851;28;20053;-92
2023/03/24 09:47:40;;;;;;;9.77;2.33;;;12.60;94.80;;;;;;5090244;28;20413;-92
2023/03/24 09:50:20;;;;;;;9.18;1.80;;;12.60;93.10;;;;;;4991105;28;20049;-92
2023/03/24 09:52:49;;;;;;;9.02;2.00;;;12.70;95.50;;;;;;5011180;28;20048;-92
2023/03/24 09:55:25;;;;;;;8.75;1.55;;;12.70;96.60;;;;;;4992416;28;20056;-92
2023/03/24 09:57:52;;;;;;;11.98;2.38;;;12.80;93.20;;;;;;4976964;28;20045;-91
2023/03/24 10:00:25;;;;;;;8.23;1.50;;;12.80;93.30;;;;;;4975949;28;20129;-92
2023/03/24 10:02:51;;;;;;;8.65;2.05;;;12.70;91.60;;;;;;4977172;28;20080;-92
2023/03/24 10:05:25;;;;;;;12.93;3.85;;;12.60;90.50;;;;;;4991640;28;20037;-91
2023/03/24 10:08:18;;;;;;;10.70;2.10;;;12.70;90.10;;;;;;4991608;28;20478;-92
2023/03/24 10:10:52;;;;;;;8.90;2.40;;;12.80;90.70;;;;;;4976559;28;20041;-91
2023/03/24 10:13:38;;;;;;;13.88;2.67;;;12.70;86.50;;;;;;4992242;28;20060;-92
2023/03/24 10:16:19;;;;;;;8.25;1.48;;;12.80;85.80;;;;;;4993692;28;20050;-92
2023/03/24 10:18:49;;;;;;;11.02;1.70;;;12.60;85.50;;;;;;4976658;28;20063;-91
2023/03/24 10:21:26;;;;;;;8.57;1.75;;;12.70;86.30;;;;;;4976287;28;20056;-93
2023/03/24 10:24:05;;;;;;;10.60;1.63;;;12.80;88.40;;;;;;4987577;28;20046;-92
2023/03/24 10:26:50;;;;;;;12.27;2.72;;;12.90;85.80;;;;;;5017699;28;20043;-91
2023/03/24 10:29:24;;;;;;;10.70;1.83;;;13.10;86.30;;;;;;5093996;28;20036;-91
2023/03/24 10:32:10;;;;;;;12.68;2.10;;;13.20;87.70;;;;;;5080660;28;20691;-92
2023/03/24 10:34:38;;;;;;;7.78;2.45;;;13.30;90.10;;;;;;5060398;28;20059;-93
2023/03/24 10:37:04;;;;;;;12.80;2.40;;;13.40;86.70;;;;;;5083336;28;20054;-92
2023/03/24 10:39:30;;;;;;;10.80;1.95;;;13.50;89.90;;;;;;5067531;28;20040;-92
2023/03/24 10:41:58;;;;;;;11.23;2.20;;;13.60;86.00;;;;;;5100027;28;20059;-91
2023/03/24 10:44:25;;;;;;;16.55;3.65;;;13.50;83.50;;;;;;5084847;28;20040;-92
2023/03/24 10:46:58;;;;;;;9.43;1.70;;;13.70;86.00;;;;;;5085104;28;20040;-92
2023/03/24 10:49:24;;;;;;;7.95;1.33;;;13.70;83.20;;;;;;5068965;28;20040;-92
2023/03/24 10:52:00;;;;;;;8.70;1.65;;;13.70;79.60;;;;;;5075526;28;20089;-92
2023/03/24 10:54:28;;;;;;;12.13;1.73;;;13.60;79.50;;;;;;5074485;28;20051;-93
2023/03/24 10:56:57;;;;;;;8.77;1.85;;;13.70;82.00;;;;;;5076200;28;20036;-93
2023/03/24 10:59:27;;;;;;;13.15;3.33;;;13.80;82.40;;;;;;5075645;28;20040;-92
2023/03/24 11:02:08;;;;;;;12.93;3.13;;;13.90;82.70;;;;;;5076707;28;20035;-92
2023/03/24 11:04:35;;;;;;;7.80;1.40;;;14.00;83.10;;;;;;5093239;28;20119;-93
2023/03/24 11:07:19;;;;;;;12.35;2.65;;;14.00;82.00;;;;;;5093687;28;20469;-92
2023/03/24 11:09:57;;;;;;;11.05;1.88;;;14.10;83.70;;;;;;5094029;28;20036;-93
2023/03/24 11:12:31;;;;;;;8.63;1.70;;;14.30;83.10;;;;;;5074217;28;20036;-93
2023/03/24 11:15:16;;;;;;;9.10;2.13;;;14.20;77.70;;;;;;5075931;28;20080;-94
2023/03/24 11:17:46;;;;;;;9.77;1.80;;;14.20;80.60;;;;;;5076277;28;20032;-93
2023/03/24 11:20:19;;;;;;;7.25;1.65;;;14.00;78.80;;;;;;5077717;28;20098;-93
2023/03/24 11:22:56;;;;;;;10.73;2.20;;;13.90;78.90;;;;;;5073597;28;20174;-93
2023/03/24 11:25:26;;;;;;;10.10;2.05;;;13.70;79.40;;;;;;5085367;28;20044;-93
2023/03/24 11:27:58;;;;;;;14.40;3.05;;;13.70;80.60;;;;;;5075492;28;20051;-93
2023/03/24 11:30:33;;;;;;;10.85;1.52;;;13.90;80.50;;;;;;5090997;28;20385;-92
2023/03/24 11:33:01;;;;;;;11.38;2.90;;;14.00;80.20;;;;;;5074196;28;20032;-93
2023/03/24 11:35:27;;;;;;;11.15;3.03;;;14.20;79.00;;;;;;5074979;28;20563;-92
2023/03/24 11:37:53;;;;;;;12.75;2.25;;;14.40;81.20;;;;;;5090810;28;20123;-93
2023/03/24 11:40:24;;;;;;;8.80;2.85;;;14.40;80.40;;;;;;5074427;28;20453;-92
2023/03/24 11:43:02;;;;;;;13.18;3.42;;;14.50;80.30;;;;;;5074141;28;20028;-92
2023/03/24 11:45:40;;;;;;;10.75;2.38;;;14.60;80.00;;;;;;5075302;28;20032;-91
2023/03/24 11:48:33;;;;;;;12.18;2.60;;;14.60;79.70;;;;;;5074256;28;20043;-92
2023/03/24 11:51:02;;;;;;;14.48;3.17;;;14.60;80.00;;;;;;5091095;28;20043;-92
2023/03/24 11:53:43;;;;;;;17.02;3.40;;;14.70;80.40;;;;;;5074030;28;20063;-92
2023/03/24 11:56:17;;;;;;;11.20;2.88;;;14.80;80.10;;;;;;5091864;28;20552;-92
2023/03/24 11:58:59;;;;;;;8.57;2.00;;;14.80;79.80;;;;;;5091321;28;20093;-92
2023/03/24 12:01:36;;;;;;;11.98;2.15;;;14.80;79.10;;;;;;5074547;28;20042;-93
2023/03/24 12:04:19;;;;;;;11.38;2.97;;;14.90;80.90;;;;;;5074461;28;20047;-92
2023/03/24 12:07:19;;;;;;;12.57;3.15;;;14.90;77.90;;;;;;5074430;28;20036;-92
2023/03/24 12:09:48;;;;;;;12.23;2.15;;;14.80;78.20;;;;;;5074879;28;20039;-94
2023/03/24 12:12:26;;;;;;;10.25;1.60;;;14.60;79.40;;;;;;5089697;28;20221;-94
2023/03/24 12:15:11;;;;;;;11.63;2.05;;;14.70;79.30;;;;;;5082580;28;20642;-93
2023/03/24 12:17:41;;;;;;;12.27;2.17;;;14.80;79.70;;;;;;5089516;28;20028;-93
2023/03/24 12:20:37;;;;;;;13.35;2.90;;;15.00;80.30;;;;;;5065801;28;20424;-92
2023/03/24 12:23:34;;;;;;;12.95;2.58;;;15.10;77.40;;;;;;5087791;28;20118;-92
2023/03/24 12:26:18;;;;;;;10.85;1.95;;;15.10;76.40;;;;;;5081443;28;20043;-92
2023/03/24 12:28:50;;;;;;;10.88;2.65;;;15.00;76.20;;;;;;5090372;28;20043;-92
2023/03/24 12:31:45;;;;;;;9.70;1.53;;;15.10;77.10;;;;;;5099164;28;20043;-92
2023/03/24 12:34:16;;;;;;;12.05;2.72;;;15.20;72.90;;;;;;5064986;28;20044;-93
2023/03/24 12:36:55;;;;;;;12.70;2.65;;;15.30;73.90;;;;;;5084152;28;20251;-92
2023/03/24 12:39:34;;;;;;;12.55;2.75;;;15.30;72.30;;;;;;5097171;28;20501;-93
2023/03/24 12:42:03;;;;;;;8.30;1.48;;;15.20;70.80;;;;;;5083822;28;20481;-93
2023/03/24 12:44:31;;;;;;;10.90;2.03;;;15.00;70.30;;;;;;5065598;28;20386;-93
2023/03/24 12:47:22;;;;;;;10.85;2.47;;;15.00;70.30;;;;;;5080963;28;20047;-93
2023/03/24 12:50:15;;;;;;;9.65;2.60;;;15.00;71.20;;;;;;5074725;28;20072;-93
2023/03/24 12:52:55;;;;;;;16.33;2.00;;;15.10;69.80;;;;;;5074018;28;20048;-92
2023/03/24 12:55:47;;;;;;;9.32;1.88;;;15.00;69.60;;;;;;5074236;28;20083;-93
2023/03/24 12:58:28;;;;;;;11.63;2.83;;;15.00;70.40;;;;;;5063034;28;20491;-93
2023/03/24 13:01:30;;;;;;;13.82;2.90;;;15.20;71.30;;;;;;5074568;28;20063;-94
2023/03/24 13:04:20;;;;;;;12.23;2.50;;;15.30;71.20;;;;;;5087407;28;20047;-93
2023/03/24 13:07:02;;;;;;;11.73;1.63;;;15.10;71.40;;;;;;5073437;28;20043;-93
2023/03/24 13:09:58;;;;;;;11.43;2.65;;;14.80;72.50;;;;;;5089834;28;20040;-94